sensor_id;sensor_type;location;lat;lon;timestamp;P1;durP1;ratioP1;P2;durP2;ratioP2
72404;SDS011;60395;52.020;113.548;2024-01-25T00:02:59;6.25;;;2.38;;
72404;SDS011;60395;52.020;113.548;2024-01-25T00:06:04;3.40;;;1.83;;
72404;SDS011;60395;52.020;113.548;2024-01-25T00:09:08;8.40;;;2.33;;
72404;SDS011;60395;52.020;113.548;2024-01-25T00:12:11;4.03;;;1.88;;
72404;SDS011;60395;52.020;113.548;2024-01-25T00:15:15;3.13;;;1.67;;
72404;SDS011;60395;52.020;113.548;2024-01-25T00:18:18;5.55;;;1.92;;
72404;SDS011;60395;52.020;113.548;2024-01-25T00:21:22;6.78;;;3.38;;
72404;SDS011;60395;52.020;113.548;2024-01-25T00:24:25;2.97;;;1.58;;
72404;SDS011;60395;52.020;113.548;2024-01-25T00:27:29;3.35;;;1.83;;
72404;SDS011;60395;52.020;113.548;2024-01-25T00:30:33;3.15;;;2.33;;
72404;SDS011;60395;52.020;113.548;2024-01-25T00:33:36;3.90;;;2.65;;
72404;SDS011;60395;52.020;113.548;2024-01-25T00:36:40;2.80;;;2.50;;
72404;SDS011;60395;52.020;113.548;2024-01-25T00:42:47;2.42;;;1.52;;
72404;SDS011;60395;52.020;113.548;2024-01-25T00:45:58;8.45;;;3.05;;
72404;SDS011;60395;52.020;113.548;2024-01-25T00:49:01;4.38;;;2.25;;
72404;SDS011;60395;52.020;113.548;2024-01-25T00:52:05;6.07;;;4.85;;
72404;SDS011;60395;52.020;113.548;2024-01-25T00:55:09;4.15;;;2.15;;
72404;SDS011;60395;52.020;113.548;2024-01-25T00:58:14;4.45;;;2.60;;
72404;SDS011;60395;52.020;113.548;2024-01-25T01:01:18;4.18;;;2.75;;
72404;SDS011;60395;52.020;113.548;2024-01-25T01:04:25;4.30;;;2.15;;
72404;SDS011;60395;52.020;113.548;2024-01-25T01:10:33;16.13;;;4.65;;
72404;SDS011;60395;52.020;113.548;2024-01-25T01:13:36;8.68;;;3.88;;
72404;SDS011;60395;52.020;113.548;2024-01-25T01:16:40;4.10;;;2.95;;
72404;SDS011;60395;52.020;113.548;2024-01-25T01:19:43;4.53;;;2.50;;
72404;SDS011;60395;52.020;113.548;2024-01-25T01:22:47;5.57;;;3.17;;
72404;SDS011;60395;52.020;113.548;2024-01-25T01:25:51;5.70;;;3.03;;
72404;SDS011;60395;52.020;113.548;2024-01-25T01:28:54;6.00;;;3.87;;
72404;SDS011;60395;52.020;113.548;2024-01-25T01:31:58;6.43;;;3.55;;
72404;SDS011;60395;52.020;113.548;2024-01-25T01:35:01;6.65;;;3.10;;
72404;SDS011;60395;52.020;113.548;2024-01-25T01:38:05;8.98;;;3.20;;
72404;SDS011;60395;52.020;113.548;2024-01-25T01:41:11;7.93;;;3.53;;
72404;SDS011;60395;52.020;113.548;2024-01-25T01:44:17;5.75;;;2.88;;
72404;SDS011;60395;52.020;113.548;2024-01-25T01:47:21;7.93;;;3.20;;
72404;SDS011;60395;52.020;113.548;2024-01-25T01:50:25;6.05;;;2.50;;
72404;SDS011;60395;52.020;113.548;2024-01-25T01:53:30;15.20;;;5.07;;
72404;SDS011;60395;52.020;113.548;2024-01-25T01:56:35;10.73;;;3.83;;
72404;SDS011;60395;52.020;113.548;2024-01-25T01:59:39;9.77;;;4.38;;
72404;SDS011;60395;52.020;113.548;2024-01-25T02:02:42;11.02;;;4.28;;
72404;SDS011;60395;52.020;113.548;2024-01-25T02:05:47;11.15;;;4.40;;
72404;SDS011;60395;52.020;113.548;2024-01-25T02:08:52;20.40;;;5.55;;
72404;SDS011;60395;52.020;113.548;2024-01-25T02:12:00;10.80;;;4.95;;
72404;SDS011;60395;52.020;113.548;2024-01-25T02:15:06;6.57;;;2.72;;
72404;SDS011;60395;52.020;113.548;2024-01-25T02:18:10;12.38;;;3.95;;
72404;SDS011;60395;52.020;113.548;2024-01-25T02:21:14;8.70;;;3.53;;
72404;SDS011;60395;52.020;113.548;2024-01-25T02:24:18;3.90;;;2.28;;
72404;SDS011;60395;52.020;113.548;2024-01-25T02:27:22;6.15;;;2.97;;
72404;SDS011;60395;52.020;113.548;2024-01-25T02:30:25;5.97;;;1.75;;
72404;SDS011;60395;52.020;113.548;2024-01-25T02:33:29;11.02;;;4.65;;
72404;SDS011;60395;52.020;113.548;2024-01-25T02:36:33;6.82;;;2.72;;
72404;SDS011;60395;52.020;113.548;2024-01-25T02:39:36;7.80;;;2.55;;
72404;SDS011;60395;52.020;113.548;2024-01-25T02:42:40;14.77;;;6.63;;
72404;SDS011;60395;52.020;113.548;2024-01-25T02:45:43;22.50;;;7.63;;
72404;SDS011;60395;52.020;113.548;2024-01-25T02:48:48;10.38;;;4.68;;
72404;SDS011;60395;52.020;113.548;2024-01-25T02:51:52;25.17;;;7.78;;
72404;SDS011;60395;52.020;113.548;2024-01-25T02:54:56;12.45;;;5.35;;
72404;SDS011;60395;52.020;113.548;2024-01-25T02:58:01;9.73;;;3.83;;
72404;SDS011;60395;52.020;113.548;2024-01-25T03:01:05;9.32;;;4.75;;
72404;SDS011;60395;52.020;113.548;2024-01-25T03:04:08;10.20;;;3.70;;
72404;SDS011;60395;52.020;113.548;2024-01-25T03:07:12;17.08;;;6.85;;
72404;SDS011;60395;52.020;113.548;2024-01-25T03:10:16;22.17;;;7.25;;
72404;SDS011;60395;52.020;113.548;2024-01-25T03:13:19;10.13;;;4.17;;
72404;SDS011;60395;52.020;113.548;2024-01-25T03:16:23;15.77;;;6.55;;
72404;SDS011;60395;52.020;113.548;2024-01-25T03:19:27;16.60;;;5.90;;
72404;SDS011;60395;52.020;113.548;2024-01-25T03:22:31;15.65;;;5.93;;
72404;SDS011;60395;52.020;113.548;2024-01-25T03:25:34;17.60;;;6.47;;
72404;SDS011;60395;52.020;113.548;2024-01-25T03:28:37;14.75;;;5.75;;
72404;SDS011;60395;52.020;113.548;2024-01-25T03:31:42;31.33;;;10.80;;
72404;SDS011;60395;52.020;113.548;2024-01-25T03:34:46;29.92;;;8.93;;
72404;SDS011;60395;52.020;113.548;2024-01-25T03:37:50;23.85;;;8.60;;
72404;SDS011;60395;52.020;113.548;2024-01-25T03:40:53;14.83;;;6.63;;
72404;SDS011;60395;52.020;113.548;2024-01-25T03:43:59;19.80;;;6.95;;
72404;SDS011;60395;52.020;113.548;2024-01-25T03:47:02;20.00;;;7.72;;
72404;SDS011;60395;52.020;113.548;2024-01-25T03:50:08;20.85;;;6.93;;
72404;SDS011;60395;52.020;113.548;2024-01-25T03:53:12;24.90;;;8.93;;
72404;SDS011;60395;52.020;113.548;2024-01-25T03:56:16;40.13;;;13.05;;
72404;SDS011;60395;52.020;113.548;2024-01-25T03:59:22;14.20;;;6.13;;
72404;SDS011;60395;52.020;113.548;2024-01-25T04:02:25;18.60;;;4.97;;
72404;SDS011;60395;52.020;113.548;2024-01-25T04:05:29;11.43;;;4.13;;
72404;SDS011;60395;52.020;113.548;2024-01-25T04:08:32;13.40;;;5.93;;
72404;SDS011;60395;52.020;113.548;2024-01-25T04:11:36;16.10;;;6.20;;
72404;SDS011;60395;52.020;113.548;2024-01-25T04:14:42;15.45;;;5.60;;
72404;SDS011;60395;52.020;113.548;2024-01-25T04:17:46;13.63;;;5.15;;
72404;SDS011;60395;52.020;113.548;2024-01-25T04:20:49;25.33;;;4.27;;
72404;SDS011;60395;52.020;113.548;2024-01-25T04:23:53;13.85;;;3.60;;
72404;SDS011;60395;52.020;113.548;2024-01-25T04:26:57;11.33;;;3.37;;
72404;SDS011;60395;52.020;113.548;2024-01-25T04:30:01;12.37;;;3.73;;
72404;SDS011;60395;52.020;113.548;2024-01-25T04:33:06;7.28;;;2.85;;
72404;SDS011;60395;52.020;113.548;2024-01-25T04:36:09;9.85;;;2.28;;
72404;SDS011;60395;52.020;113.548;2024-01-25T04:39:13;14.02;;;3.85;;
72404;SDS011;60395;52.020;113.548;2024-01-25T04:42:17;11.82;;;4.57;;
72404;SDS011;60395;52.020;113.548;2024-01-25T04:45:20;13.25;;;3.38;;
72404;SDS011;60395;52.020;113.548;2024-01-25T04:48:24;8.93;;;3.45;;
72404;SDS011;60395;52.020;113.548;2024-01-25T04:51:28;29.30;;;5.95;;
72404;SDS011;60395;52.020;113.548;2024-01-25T04:54:31;13.40;;;4.47;;
72404;SDS011;60395;52.020;113.548;2024-01-25T04:57:35;15.43;;;4.75;;
72404;SDS011;60395;52.020;113.548;2024-01-25T05:00:39;11.83;;;3.07;;
72404;SDS011;60395;52.020;113.548;2024-01-25T05:03:42;7.67;;;2.70;;
72404;SDS011;60395;52.020;113.548;2024-01-25T05:06:46;22.10;;;6.20;;
72404;SDS011;60395;52.020;113.548;2024-01-25T05:09:49;12.68;;;4.82;;
72404;SDS011;60395;52.020;113.548;2024-01-25T05:12:53;15.88;;;3.90;;
72404;SDS011;60395;52.020;113.548;2024-01-25T05:15:56;15.03;;;5.43;;
72404;SDS011;60395;52.020;113.548;2024-01-25T05:19:00;11.60;;;3.65;;
72404;SDS011;60395;52.020;113.548;2024-01-25T05:22:03;13.85;;;3.70;;
72404;SDS011;60395;52.020;113.548;2024-01-25T05:25:09;6.47;;;3.10;;
72404;SDS011;60395;52.020;113.548;2024-01-25T05:28:12;13.80;;;4.00;;
72404;SDS011;60395;52.020;113.548;2024-01-25T05:31:16;10.30;;;4.50;;
72404;SDS011;60395;52.020;113.548;2024-01-25T05:34:19;15.83;;;4.73;;
72404;SDS011;60395;52.020;113.548;2024-01-25T05:37:23;12.93;;;4.87;;
72404;SDS011;60395;52.020;113.548;2024-01-25T05:40:26;15.93;;;5.22;;
72404;SDS011;60395;52.020;113.548;2024-01-25T05:43:30;14.70;;;4.05;;
72404;SDS011;60395;52.020;113.548;2024-01-25T05:46:35;13.43;;;4.40;;
72404;SDS011;60395;52.020;113.548;2024-01-25T05:49:42;23.30;;;6.00;;
72404;SDS011;60395;52.020;113.548;2024-01-25T05:52:46;15.95;;;5.32;;
72404;SDS011;60395;52.020;113.548;2024-01-25T05:55:50;16.58;;;6.00;;
72404;SDS011;60395;52.020;113.548;2024-01-25T05:58:54;12.97;;;5.27;;
72404;SDS011;60395;52.020;113.548;2024-01-25T06:01:57;19.60;;;6.13;;
72404;SDS011;60395;52.020;113.548;2024-01-25T06:05:01;14.77;;;6.23;;
72404;SDS011;60395;52.020;113.548;2024-01-25T06:08:04;17.10;;;5.75;;
72404;SDS011;60395;52.020;113.548;2024-01-25T06:11:08;16.83;;;5.18;;
72404;SDS011;60395;52.020;113.548;2024-01-25T06:14:12;12.68;;;4.68;;
72404;SDS011;60395;52.020;113.548;2024-01-25T06:17:15;15.10;;;5.15;;
72404;SDS011;60395;52.020;113.548;2024-01-25T06:20:19;22.25;;;6.22;;
72404;SDS011;60395;52.020;113.548;2024-01-25T06:23:22;14.23;;;5.07;;
72404;SDS011;60395;52.020;113.548;2024-01-25T06:26:26;13.98;;;5.50;;
72404;SDS011;60395;52.020;113.548;2024-01-25T06:29:29;12.10;;;4.15;;
72404;SDS011;60395;52.020;113.548;2024-01-25T06:32:32;15.20;;;4.72;;
72404;SDS011;60395;52.020;113.548;2024-01-25T06:35:36;17.52;;;5.50;;
72404;SDS011;60395;52.020;113.548;2024-01-25T06:38:39;10.23;;;3.58;;
72404;SDS011;60395;52.020;113.548;2024-01-25T06:41:43;9.32;;;3.53;;
72404;SDS011;60395;52.020;113.548;2024-01-25T06:44:46;6.43;;;2.78;;
72404;SDS011;60395;52.020;113.548;2024-01-25T06:47:49;14.98;;;3.60;;
72404;SDS011;60395;52.020;113.548;2024-01-25T06:50:53;10.63;;;2.90;;
72404;SDS011;60395;52.020;113.548;2024-01-25T06:53:56;10.90;;;3.00;;
72404;SDS011;60395;52.020;113.548;2024-01-25T06:57:00;8.63;;;3.30;;
72404;SDS011;60395;52.020;113.548;2024-01-25T07:00:03;5.35;;;2.85;;
72404;SDS011;60395;52.020;113.548;2024-01-25T07:03:08;8.40;;;2.85;;
72404;SDS011;60395;52.020;113.548;2024-01-25T07:06:12;4.78;;;2.75;;
72404;SDS011;60395;52.020;113.548;2024-01-25T07:09:15;11.60;;;4.40;;
72404;SDS011;60395;52.020;113.548;2024-01-25T07:12:18;11.77;;;3.95;;
72404;SDS011;60395;52.020;113.548;2024-01-25T07:15:22;10.52;;;3.85;;
72404;SDS011;60395;52.020;113.548;2024-01-25T07:18:25;25.88;;;7.80;;
72404;SDS011;60395;52.020;113.548;2024-01-25T07:21:29;13.50;;;4.00;;
72404;SDS011;60395;52.020;113.548;2024-01-25T07:24:34;15.40;;;4.80;;
72404;SDS011;60395;52.020;113.548;2024-01-25T07:27:38;15.55;;;4.65;;
72404;SDS011;60395;52.020;113.548;2024-01-25T07:30:41;12.35;;;4.80;;
72404;SDS011;60395;52.020;113.548;2024-01-25T07:33:45;11.32;;;4.82;;
72404;SDS011;60395;52.020;113.548;2024-01-25T07:36:49;14.80;;;4.60;;
72404;SDS011;60395;52.020;113.548;2024-01-25T07:39:52;9.65;;;3.72;;
72404;SDS011;60395;52.020;113.548;2024-01-25T07:42:56;17.80;;;6.22;;
72404;SDS011;60395;52.020;113.548;2024-01-25T07:45:59;11.05;;;5.47;;
72404;SDS011;60395;52.020;113.548;2024-01-25T07:49:03;16.77;;;5.80;;
72404;SDS011;60395;52.020;113.548;2024-01-25T07:52:07;12.50;;;4.43;;
72404;SDS011;60395;52.020;113.548;2024-01-25T07:55:11;14.75;;;4.60;;
72404;SDS011;60395;52.020;113.548;2024-01-25T07:58:15;14.88;;;3.83;;
72404;SDS011;60395;52.020;113.548;2024-01-25T08:01:18;13.23;;;4.53;;
72404;SDS011;60395;52.020;113.548;2024-01-25T08:04:23;15.27;;;4.95;;
72404;SDS011;60395;52.020;113.548;2024-01-25T08:07:28;14.63;;;5.82;;
72404;SDS011;60395;52.020;113.548;2024-01-25T08:13:35;23.95;;;5.03;;
72404;SDS011;60395;52.020;113.548;2024-01-25T08:16:38;13.48;;;4.78;;
72404;SDS011;60395;52.020;113.548;2024-01-25T08:19:42;22.45;;;6.28;;
72404;SDS011;60395;52.020;113.548;2024-01-25T08:22:45;14.03;;;5.43;;
72404;SDS011;60395;52.020;113.548;2024-01-25T08:26:01;14.13;;;5.10;;
72404;SDS011;60395;52.020;113.548;2024-01-25T08:29:22;21.48;;;6.50;;
72404;SDS011;60395;52.020;113.548;2024-01-25T08:32:40;17.80;;;6.53;;
72404;SDS011;60395;52.020;113.548;2024-01-25T08:35:46;36.13;;;9.13;;
72404;SDS011;60395;52.020;113.548;2024-01-25T08:39:23;33.10;;;10.18;;
72404;SDS011;60395;52.020;113.548;2024-01-25T08:42:33;39.28;;;12.57;;
72404;SDS011;60395;52.020;113.548;2024-01-25T08:46:14;41.78;;;13.93;;
72404;SDS011;60395;52.020;113.548;2024-01-25T08:49:49;48.97;;;16.85;;
72404;SDS011;60395;52.020;113.548;2024-01-25T08:52:56;31.38;;;11.23;;
72404;SDS011;60395;52.020;113.548;2024-01-25T08:56:10;41.95;;;14.60;;
72404;SDS011;60395;52.020;113.548;2024-01-25T08:59:47;34.50;;;12.35;;
72404;SDS011;60395;52.020;113.548;2024-01-25T09:03:17;17.00;;;6.78;;
72404;SDS011;60395;52.020;113.548;2024-01-25T09:06:27;22.27;;;7.15;;
72404;SDS011;60395;52.020;113.548;2024-01-25T09:09:36;19.30;;;8.32;;
72404;SDS011;60395;52.020;113.548;2024-01-25T09:13:06;27.92;;;7.30;;
72404;SDS011;60395;52.020;113.548;2024-01-25T09:16:09;19.25;;;4.95;;
72404;SDS011;60395;52.020;113.548;2024-01-25T09:19:12;24.13;;;7.60;;
72404;SDS011;60395;52.020;113.548;2024-01-25T09:22:18;12.55;;;4.57;;
72404;SDS011;60395;52.020;113.548;2024-01-25T09:25:24;19.00;;;6.40;;
72404;SDS011;60395;52.020;113.548;2024-01-25T09:28:28;13.38;;;5.10;;
72404;SDS011;60395;52.020;113.548;2024-01-25T09:31:32;19.08;;;5.50;;
72404;SDS011;60395;52.020;113.548;2024-01-25T09:34:39;14.55;;;6.18;;
72404;SDS011;60395;52.020;113.548;2024-01-25T09:37:42;19.92;;;5.20;;
72404;SDS011;60395;52.020;113.548;2024-01-25T09:40:46;16.13;;;6.03;;
72404;SDS011;60395;52.020;113.548;2024-01-25T09:43:52;16.80;;;5.82;;
72404;SDS011;60395;52.020;113.548;2024-01-25T09:46:56;13.40;;;4.22;;
72404;SDS011;60395;52.020;113.548;2024-01-25T09:50:00;7.68;;;2.15;;
72404;SDS011;60395;52.020;113.548;2024-01-25T09:53:04;5.07;;;2.38;;
72404;SDS011;60395;52.020;113.548;2024-01-25T09:56:10;2.42;;;1.05;;
72404;SDS011;60395;52.020;113.548;2024-01-25T09:59:19;2.30;;;1.00;;
72404;SDS011;60395;52.020;113.548;2024-01-25T10:02:26;2.70;;;1.02;;
72404;SDS011;60395;52.020;113.548;2024-01-25T10:05:30;2.60;;;1.45;;
72404;SDS011;60395;52.020;113.548;2024-01-25T10:08:34;1.70;;;0.93;;
72404;SDS011;60395;52.020;113.548;2024-01-25T10:11:38;0.38;;;0.38;;
72404;SDS011;60395;52.020;113.548;2024-01-25T10:14:56;1.25;;;0.80;;
72404;SDS011;60395;52.020;113.548;2024-01-25T10:18:05;2.25;;;0.95;;
72404;SDS011;60395;52.020;113.548;2024-01-25T10:21:29;4.80;;;1.77;;
72404;SDS011;60395;52.020;113.548;2024-01-25T10:24:33;2.67;;;1.45;;
72404;SDS011;60395;52.020;113.548;2024-01-25T10:27:37;4.70;;;1.98;;
72404;SDS011;60395;52.020;113.548;2024-01-25T10:30:43;7.10;;;2.67;;
72404;SDS011;60395;52.020;113.548;2024-01-25T10:33:52;3.63;;;2.22;;
72404;SDS011;60395;52.020;113.548;2024-01-25T10:36:59;3.55;;;1.75;;
72404;SDS011;60395;52.020;113.548;2024-01-25T10:40:04;13.38;;;3.67;;
72404;SDS011;60395;52.020;113.548;2024-01-25T10:43:11;6.28;;;2.78;;
72404;SDS011;60395;52.020;113.548;2024-01-25T10:46:15;6.72;;;3.70;;
72404;SDS011;60395;52.020;113.548;2024-01-25T10:49:20;11.90;;;4.65;;
72404;SDS011;60395;52.020;113.548;2024-01-25T10:52:25;11.85;;;5.40;;
72404;SDS011;60395;52.020;113.548;2024-01-25T10:55:30;10.68;;;5.13;;
72404;SDS011;60395;52.020;113.548;2024-01-25T10:58:40;17.80;;;6.38;;
72404;SDS011;60395;52.020;113.548;2024-01-25T11:01:48;12.48;;;5.90;;
72404;SDS011;60395;52.020;113.548;2024-01-25T11:04:53;11.80;;;5.68;;
72404;SDS011;60395;52.020;113.548;2024-01-25T11:07:59;17.27;;;7.47;;
72404;SDS011;60395;52.020;113.548;2024-01-25T11:11:05;26.08;;;8.00;;
72404;SDS011;60395;52.020;113.548;2024-01-25T11:14:19;9.93;;;5.38;;
72404;SDS011;60395;52.020;113.548;2024-01-25T11:17:25;19.77;;;6.43;;
72404;SDS011;60395;52.020;113.548;2024-01-25T11:20:35;24.92;;;9.07;;
72404;SDS011;60395;52.020;113.548;2024-01-25T11:23:44;24.33;;;8.77;;
72404;SDS011;60395;52.020;113.548;2024-01-25T11:26:55;18.38;;;7.18;;
72404;SDS011;60395;52.020;113.548;2024-01-25T11:30:01;24.27;;;7.78;;
72404;SDS011;60395;52.020;113.548;2024-01-25T11:33:14;19.85;;;8.90;;
72404;SDS011;60395;52.020;113.548;2024-01-25T11:36:22;25.08;;;9.27;;
72404;SDS011;60395;52.020;113.548;2024-01-25T11:39:31;24.90;;;9.60;;
72404;SDS011;60395;52.020;113.548;2024-01-25T11:45:39;15.05;;;8.43;;
72404;SDS011;60395;52.020;113.548;2024-01-25T11:48:45;28.70;;;8.70;;
72404;SDS011;60395;52.020;113.548;2024-01-25T11:51:49;23.63;;;8.60;;
72404;SDS011;60395;52.020;113.548;2024-01-25T11:54:54;13.50;;;6.75;;
72404;SDS011;60395;52.020;113.548;2024-01-25T11:57:57;18.88;;;8.98;;
72404;SDS011;60395;52.020;113.548;2024-01-25T12:01:02;16.98;;;8.27;;
72404;SDS011;60395;52.020;113.548;2024-01-25T12:04:08;18.58;;;8.02;;
72404;SDS011;60395;52.020;113.548;2024-01-25T12:10:16;23.20;;;8.15;;
72404;SDS011;60395;52.020;113.548;2024-01-25T12:13:20;33.03;;;10.20;;
72404;SDS011;60395;52.020;113.548;2024-01-25T12:16:23;56.90;;;21.83;;
72404;SDS011;60395;52.020;113.548;2024-01-25T12:19:28;52.35;;;17.90;;
72404;SDS011;60395;52.020;113.548;2024-01-25T12:22:32;47.05;;;17.35;;
72404;SDS011;60395;52.020;113.548;2024-01-25T12:25:39;31.60;;;10.55;;
72404;SDS011;60395;52.020;113.548;2024-01-25T12:28:43;26.25;;;9.43;;
72404;SDS011;60395;52.020;113.548;2024-01-25T12:31:47;25.15;;;10.00;;
72404;SDS011;60395;52.020;113.548;2024-01-25T12:34:54;30.93;;;12.30;;
72404;SDS011;60395;52.020;113.548;2024-01-25T12:37:58;41.78;;;15.07;;
72404;SDS011;60395;52.020;113.548;2024-01-25T12:41:02;25.90;;;8.95;;
72404;SDS011;60395;52.020;113.548;2024-01-25T12:44:06;18.30;;;8.07;;
72404;SDS011;60395;52.020;113.548;2024-01-25T12:47:10;13.35;;;6.57;;
72404;SDS011;60395;52.020;113.548;2024-01-25T12:50:15;15.88;;;6.93;;
72404;SDS011;60395;52.020;113.548;2024-01-25T12:53:18;12.07;;;4.50;;
72404;SDS011;60395;52.020;113.548;2024-01-25T12:56:22;15.52;;;6.32;;
72404;SDS011;60395;52.020;113.548;2024-01-25T12:59:26;14.47;;;5.60;;
72404;SDS011;60395;52.020;113.548;2024-01-25T13:02:29;13.93;;;5.55;;
72404;SDS011;60395;52.020;113.548;2024-01-25T13:05:33;9.00;;;4.03;;
72404;SDS011;60395;52.020;113.548;2024-01-25T13:08:37;13.38;;;6.10;;
72404;SDS011;60395;52.020;113.548;2024-01-25T13:11:41;8.27;;;2.92;;
72404;SDS011;60395;52.020;113.548;2024-01-25T13:14:44;11.93;;;5.53;;
72404;SDS011;60395;52.020;113.548;2024-01-25T13:17:48;12.98;;;4.80;;
72404;SDS011;60395;52.020;113.548;2024-01-25T13:20:52;6.28;;;3.85;;
72404;SDS011;60395;52.020;113.548;2024-01-25T13:23:55;7.15;;;2.25;;
72404;SDS011;60395;52.020;113.548;2024-01-25T13:26:59;5.80;;;2.42;;
72404;SDS011;60395;52.020;113.548;2024-01-25T13:30:04;4.38;;;2.83;;
72404;SDS011;60395;52.020;113.548;2024-01-25T13:33:08;4.43;;;2.83;;
72404;SDS011;60395;52.020;113.548;2024-01-25T13:36:11;5.03;;;1.73;;
72404;SDS011;60395;52.020;113.548;2024-01-25T13:39:17;7.38;;;3.60;;
72404;SDS011;60395;52.020;113.548;2024-01-25T13:42:20;8.00;;;3.25;;
72404;SDS011;60395;52.020;113.548;2024-01-25T13:45:24;15.18;;;3.63;;
72404;SDS011;60395;52.020;113.548;2024-01-25T13:48:28;6.97;;;2.90;;
72404;SDS011;60395;52.020;113.548;2024-01-25T13:51:33;8.35;;;3.05;;
72404;SDS011;60395;52.020;113.548;2024-01-25T13:54:37;6.22;;;3.33;;
72404;SDS011;60395;52.020;113.548;2024-01-25T13:57:40;7.97;;;3.57;;
72404;SDS011;60395;52.020;113.548;2024-01-25T14:00:44;5.35;;;2.28;;
72404;SDS011;60395;52.020;113.548;2024-01-25T14:03:47;4.07;;;2.35;;
72404;SDS011;60395;52.020;113.548;2024-01-25T14:06:51;4.05;;;2.22;;
72404;SDS011;60395;52.020;113.548;2024-01-25T14:09:55;15.65;;;3.67;;
72404;SDS011;60395;52.020;113.548;2024-01-25T14:12:58;9.65;;;3.45;;
72404;SDS011;60395;52.020;113.548;2024-01-25T14:16:02;6.60;;;3.70;;
72404;SDS011;60395;52.020;113.548;2024-01-25T14:22:10;11.52;;;4.30;;
72404;SDS011;60395;52.020;113.548;2024-01-25T14:25:30;17.08;;;6.82;;
72404;SDS011;60395;52.020;113.548;2024-01-25T14:28:34;15.68;;;6.68;;
72404;SDS011;60395;52.020;113.548;2024-01-25T14:31:37;25.98;;;9.50;;
72404;SDS011;60395;52.020;113.548;2024-01-25T14:34:41;17.67;;;7.05;;
72404;SDS011;60395;52.020;113.548;2024-01-25T14:37:44;15.88;;;6.28;;
72404;SDS011;60395;52.020;113.548;2024-01-25T14:40:48;9.90;;;4.87;;
72404;SDS011;60395;52.020;113.548;2024-01-25T14:44:00;11.52;;;4.80;;
72404;SDS011;60395;52.020;113.548;2024-01-25T14:47:04;20.30;;;6.95;;
72404;SDS011;60395;52.020;113.548;2024-01-25T14:50:07;20.88;;;8.82;;
72404;SDS011;60395;52.020;113.548;2024-01-25T14:53:11;27.90;;;11.43;;
72404;SDS011;60395;52.020;113.548;2024-01-25T14:56:15;14.40;;;6.82;;
72404;SDS011;60395;52.020;113.548;2024-01-25T14:59:18;39.40;;;13.48;;
72404;SDS011;60395;52.020;113.548;2024-01-25T15:02:22;45.90;;;19.02;;
72404;SDS011;60395;52.020;113.548;2024-01-25T15:05:25;44.90;;;12.95;;
72404;SDS011;60395;52.020;113.548;2024-01-25T15:08:30;30.10;;;12.55;;
72404;SDS011;60395;52.020;113.548;2024-01-25T15:11:34;67.55;;;23.52;;
72404;SDS011;60395;52.020;113.548;2024-01-25T15:14:37;63.08;;;24.15;;
72404;SDS011;60395;52.020;113.548;2024-01-25T15:17:40;90.85;;;31.42;;
72404;SDS011;60395;52.020;113.548;2024-01-25T15:20:44;56.50;;;19.10;;
72404;SDS011;60395;52.020;113.548;2024-01-25T15:23:47;58.20;;;23.90;;
72404;SDS011;60395;52.020;113.548;2024-01-25T15:26:51;60.92;;;22.60;;
72404;SDS011;60395;52.020;113.548;2024-01-25T15:29:54;35.53;;;17.77;;
72404;SDS011;60395;52.020;113.548;2024-01-25T15:32:58;73.72;;;21.13;;
72404;SDS011;60395;52.020;113.548;2024-01-25T15:36:02;54.70;;;22.17;;
72404;SDS011;60395;52.020;113.548;2024-01-25T15:39:07;60.60;;;18.90;;
72404;SDS011;60395;52.020;113.548;2024-01-25T15:42:10;37.45;;;17.40;;
72404;SDS011;60395;52.020;113.548;2024-01-25T15:45:14;71.38;;;23.50;;
72404;SDS011;60395;52.020;113.548;2024-01-25T15:48:17;60.30;;;21.00;;
72404;SDS011;60395;52.020;113.548;2024-01-25T15:51:21;38.30;;;15.32;;
72404;SDS011;60395;52.020;113.548;2024-01-25T15:54:28;64.00;;;23.98;;
72404;SDS011;60395;52.020;113.548;2024-01-25T15:57:31;93.95;;;33.03;;
72404;SDS011;60395;52.020;113.548;2024-01-25T16:00:35;83.70;;;29.73;;
72404;SDS011;60395;52.020;113.548;2024-01-25T16:03:38;41.53;;;17.17;;
72404;SDS011;60395;52.020;113.548;2024-01-25T16:06:42;58.25;;;20.60;;
72404;SDS011;60395;52.020;113.548;2024-01-25T16:09:45;57.38;;;21.70;;
72404;SDS011;60395;52.020;113.548;2024-01-25T16:12:49;69.00;;;23.30;;
72404;SDS011;60395;52.020;113.548;2024-01-25T16:15:53;47.72;;;18.30;;
72404;SDS011;60395;52.020;113.548;2024-01-25T16:18:56;67.38;;;20.98;;
72404;SDS011;60395;52.020;113.548;2024-01-25T16:22:02;52.45;;;20.63;;
72404;SDS011;60395;52.020;113.548;2024-01-25T16:25:05;42.42;;;18.20;;
72404;SDS011;60395;52.020;113.548;2024-01-25T16:28:09;46.78;;;18.27;;
72404;SDS011;60395;52.020;113.548;2024-01-25T16:31:13;48.08;;;19.00;;
72404;SDS011;60395;52.020;113.548;2024-01-25T16:34:17;43.22;;;15.77;;
72404;SDS011;60395;52.020;113.548;2024-01-25T16:37:21;40.92;;;16.92;;
72404;SDS011;60395;52.020;113.548;2024-01-25T16:40:24;41.97;;;15.05;;
72404;SDS011;60395;52.020;113.548;2024-01-25T16:43:27;26.75;;;11.98;;
72404;SDS011;60395;52.020;113.548;2024-01-25T16:46:31;46.65;;;13.02;;
72404;SDS011;60395;52.020;113.548;2024-01-25T16:49:34;29.30;;;10.90;;
72404;SDS011;60395;52.020;113.548;2024-01-25T16:52:38;19.13;;;9.23;;
72404;SDS011;60395;52.020;113.548;2024-01-25T16:55:41;17.98;;;10.15;;
72404;SDS011;60395;52.020;113.548;2024-01-25T16:58:44;26.95;;;12.45;;
72404;SDS011;60395;52.020;113.548;2024-01-25T17:01:48;22.85;;;10.50;;
72404;SDS011;60395;52.020;113.548;2024-01-25T17:04:51;22.58;;;12.85;;
72404;SDS011;60395;52.020;113.548;2024-01-25T17:07:55;29.95;;;11.85;;
72404;SDS011;60395;52.020;113.548;2024-01-25T17:10:58;22.77;;;7.88;;
72404;SDS011;60395;52.020;113.548;2024-01-25T17:14:02;35.63;;;15.95;;
72404;SDS011;60395;52.020;113.548;2024-01-25T17:17:05;47.85;;;18.20;;
72404;SDS011;60395;52.020;113.548;2024-01-25T17:20:09;24.80;;;8.15;;
72404;SDS011;60395;52.020;113.548;2024-01-25T17:23:14;13.88;;;6.85;;
72404;SDS011;60395;52.020;113.548;2024-01-25T17:26:18;30.30;;;10.48;;
72404;SDS011;60395;52.020;113.548;2024-01-25T17:29:22;16.30;;;6.05;;
72404;SDS011;60395;52.020;113.548;2024-01-25T17:32:28;17.90;;;6.95;;
72404;SDS011;60395;52.020;113.548;2024-01-25T17:35:34;16.10;;;6.85;;
72404;SDS011;60395;52.020;113.548;2024-01-25T17:38:37;49.20;;;7.05;;
72404;SDS011;60395;52.020;113.548;2024-01-25T17:41:42;13.40;;;6.30;;
72404;SDS011;60395;52.020;113.548;2024-01-25T17:44:45;6.57;;;4.80;;
72404;SDS011;60395;52.020;113.548;2024-01-25T17:47:49;14.20;;;6.25;;
72404;SDS011;60395;52.020;113.548;2024-01-25T17:50:56;11.48;;;5.30;;
72404;SDS011;60395;52.020;113.548;2024-01-25T17:54:00;14.88;;;7.18;;
72404;SDS011;60395;52.020;113.548;2024-01-25T17:57:03;11.70;;;5.05;;
72404;SDS011;60395;52.020;113.548;2024-01-25T18:00:07;11.68;;;5.75;;
72404;SDS011;60395;52.020;113.548;2024-01-25T18:03:10;20.60;;;7.93;;
72404;SDS011;60395;52.020;113.548;2024-01-25T18:06:14;16.90;;;8.93;;
72404;SDS011;60395;52.020;113.548;2024-01-25T18:09:18;23.60;;;9.23;;